Terminal Aerodrome Forecast
Issued by NWS Topeka, KS

Home | Current Version | Previous Version | Text Only | Print | Product List | Glossary On
Versions: 1 2 3 4 5 6 7 8 9 10 11 12 13 14 15 16 17 18 19 20 21 22 23 24
000
FTUS43 KTOP 151436 AAB
TAFTOP
TAF AMD
KTOP 151436Z 1515/1612 18006KT P6SM BKN007
     FM151600 16008KT P6SM SCT010
     FM160600 16005KT P6SM VCTS SCT070CB=

USA.gov is the U.S. government's official web portal to all federal, state and local government web resources and services.